createdAt,value
2022-09-21T00:01:18.040Z,99896.13
2022-09-21T00:03:47.632Z,99902.06
2022-09-21T00:06:18.647Z,99895.94
2022-09-21T00:08:46.283Z,99895.94
2022-09-21T00:11:21.087Z,99899.56
2022-09-21T00:13:47.827Z,99891.53
2022-09-21T00:16:17.000Z,99894.94
2022-09-21T00:18:43.962Z,99891.53
2022-09-21T00:21:13.325Z,99886.97
2022-09-21T00:23:40.563Z,99895.94
2022-09-21T00:26:16.486Z,99898.59
2022-09-21T00:28:44.634Z,99908.19
2022-09-21T00:31:14.463Z,99905.41
2022-09-21T00:33:42.421Z,99899.22
2022-09-21T00:36:11.264Z,99908.66
2022-09-21T00:38:38.381Z,99902.44
2022-09-21T00:41:06.875Z,99911.03
2022-09-21T00:43:35.507Z,99906.69
2022-09-21T00:46:14.140Z,99907.41
2022-09-21T00:48:41.213Z,99908.41
2022-09-21T00:51:09.177Z,99906.00
2022-09-21T00:53:38.574Z,99904.97
2022-09-21T00:56:06.768Z,99895.28
2022-09-21T00:58:40.748Z,99903.03
2022-09-21T01:01:07.559Z,99896.06
2022-09-21T01:03:34.468Z,99890.03
2022-09-21T01:06:01.105Z,99896.59
2022-09-21T01:08:28.484Z,99902.78
2022-09-21T01:11:17.775Z,99894.88
2022-09-21T01:13:50.509Z,99897.66
2022-09-21T01:16:27.105Z,99899.38
2022-09-21T01:19:33.829Z,99898.44
2022-09-21T01:22:27.765Z,99907.28
2022-09-21T01:25:24.261Z,99908.06
2022-09-21T01:27:57.425Z,99907.88
2022-09-21T01:30:24.921Z,99914.19
2022-09-21T01:33:13.961Z,99923.16
2022-09-21T01:35:50.692Z,99921.22
2022-09-21T01:38:27.313Z,99925.56
2022-09-21T01:41:02.677Z,99923.53
2022-09-21T01:43:43.756Z,99927.78
2022-09-21T01:46:15.698Z,99923.34
2022-09-21T01:48:46.577Z,99928.47
2022-09-21T01:51:17.827Z,99925.84
2022-09-21T01:53:59.285Z,99926.59
2022-09-21T01:56:33.624Z,99922.94
2022-09-21T01:59:09.695Z,99914.53
2022-09-21T02:01:43.574Z,99918.28
2022-09-21T02:04:11.955Z,99918.28
2022-09-21T02:06:46.190Z,99917.41
2022-09-21T02:09:13.403Z,99917.41
2022-09-21T02:11:43.130Z,99918.28
2022-09-21T02:14:13.057Z,99922.69
2022-09-21T02:16:42.161Z,99910.50
2022-09-21T02:19:26.896Z,99922.16
2022-09-21T02:22:29.284Z,99915.50
2022-09-21T02:25:03.989Z,99922.47
2022-09-21T02:28:00.749Z,99925.38
2022-09-21T02:30:27.473Z,99931.56
2022-09-21T02:33:14.765Z,99928.22
2022-09-21T02:35:58.744Z,99929.00
2022-09-21T02:38:41.172Z,99925.69
2022-09-21T02:41:28.385Z,99922.22
2022-09-21T02:44:33.736Z,99919.56
2022-09-21T02:47:03.033Z,99925.16
2022-09-21T02:49:36.083Z,99930.56
2022-09-21T02:52:08.579Z,99939.25
2022-09-21T02:54:38.175Z,99940.13
2022-09-21T02:57:06.062Z,99928.53
2022-09-21T02:59:33.017Z,99922.34
2022-09-21T03:01:59.887Z,99923.13
2022-09-21T03:04:27.994Z,99922.44
2022-09-21T03:06:54.684Z,99925.91
2022-09-21T03:09:24.253Z,99933.66
2022-09-21T03:11:51.676Z,99921.25
2022-09-21T03:14:19.259Z,99924.84
2022-09-21T03:16:46.028Z,99931.78
2022-09-21T03:19:12.675Z,99929.16
2022-09-21T03:21:43.737Z,99938.75
2022-09-21T03:24:11.136Z,99932.75
2022-09-21T03:26:37.984Z,99933.75
2022-09-21T03:29:05.205Z,99938.00
2022-09-21T03:31:32.425Z,99940.66
2022-09-21T03:33:59.424Z,99946.59
2022-09-21T03:36:26.042Z,99943.75
2022-09-21T03:38:52.607Z,99949.94
2022-09-21T03:41:19.506Z,99953.75
2022-09-21T03:43:46.065Z,99946.88
2022-09-21T03:46:12.634Z,99946.03
2022-09-21T03:48:40.747Z,99954.84
2022-09-21T03:51:07.314Z,99950.88
2022-09-21T03:53:33.947Z,99950.66
2022-09-21T03:56:00.843Z,99951.50
2022-09-21T03:58:27.432Z,99938.34
2022-09-21T04:00:54.548Z,99940.81
2022-09-21T04:03:21.136Z,99942.59
2022-09-21T04:05:47.695Z,99946.03
2022-09-21T04:08:14.278Z,99950.56
2022-09-21T04:10:42.727Z,99955.22
2022-09-21T04:13:12.429Z,99954.44
2022-09-21T04:15:39.169Z,99949.66
2022-09-21T04:18:06.027Z,99955.78
2022-09-21T04:20:32.593Z,99955.84
2022-09-21T04:22:59.912Z,99955.78
2022-09-21T04:25:26.641Z,99960.19
2022-09-21T04:27:53.225Z,99955.06
2022-09-21T04:30:19.837Z,99956.09
2022-09-21T04:32:46.605Z,99958.78
2022-09-21T04:35:13.131Z,99962.50
2022-09-21T04:37:39.766Z,99960.78
2022-09-21T04:40:07.661Z,99963.34
2022-09-21T04:42:34.484Z,99961.56
2022-09-21T04:45:01.126Z,99967.09
2022-09-21T04:47:30.617Z,99960.22
2022-09-21T04:49:57.363Z,99964.31
2022-09-21T04:52:23.966Z,99974.06
2022-09-21T04:54:51.161Z,99967.09
2022-09-21T04:57:17.775Z,99971.56
2022-09-21T04:59:44.341Z,99977.06
2022-09-21T05:02:10.918Z,99974.72
2022-09-21T05:04:37.503Z,99975.81
2022-09-21T05:07:04.270Z,99980.84
2022-09-21T05:09:51.132Z,99976.38
2022-09-21T05:12:17.702Z,99980.91
2022-09-21T05:14:45.027Z,99988.91
2022-09-21T05:17:12.854Z,99989.88
2022-09-21T05:19:40.195Z,99993.09
2022-09-21T05:22:07.003Z,99996.63
2022-09-21T05:24:33.575Z,99993.31
2022-09-21T05:27:00.532Z,99991.03
2022-09-21T05:29:27.407Z,99997.81
2022-09-21T05:32:12.898Z,99999.75
2022-09-21T05:34:45.115Z,99997.94
2022-09-21T05:37:38.000Z,99998.50
2022-09-21T05:40:06.350Z,99996.66
2022-09-21T05:42:33.483Z,100005.28
2022-09-21T05:45:00.294Z,100004.81
2022-09-21T05:47:40.758Z,100011.06
2022-09-21T06:10:00.219Z,100011.53
2022-09-21T06:12:26.746Z,100008.91
2022-09-21T06:27:10.137Z,100025.28
2022-09-21T06:29:36.711Z,100026.78
2022-09-21T06:32:04.776Z,100029.06
2022-09-21T06:34:31.550Z,100026.88
2022-09-21T06:36:58.152Z,100030.16
2022-09-21T06:39:24.758Z,100029.00
2022-09-21T06:41:52.311Z,100029.00
2022-09-21T06:44:18.879Z,100037.25
2022-09-21T06:46:45.645Z,100034.47
2022-09-21T06:49:12.206Z,100030.63
2022-09-21T06:51:38.816Z,100034.13
2022-09-21T06:54:05.986Z,100033.25
2022-09-21T06:56:33.229Z,100023.88
2022-09-21T06:58:59.803Z,100043.66
2022-09-21T07:01:26.571Z,100046.63
2022-09-21T07:03:54.095Z,100042.78
2022-09-21T07:06:20.894Z,100047.34
2022-09-21T07:11:34.771Z,100049.31
2022-09-21T07:14:01.338Z,100054.09
2022-09-21T07:16:28.199Z,100053.44
2022-09-21T07:18:54.824Z,100051.03
2022-09-21T07:21:21.901Z,100055.06
2022-09-21T07:23:48.502Z,100052.59
2022-09-21T07:26:15.593Z,100043.19
2022-09-21T07:28:42.728Z,100052.16
2022-09-21T07:31:13.957Z,100049.88
2022-09-21T07:33:41.637Z,100047.03
2022-09-21T07:36:11.947Z,100039.34
2022-09-21T07:38:43.353Z,100047.53
2022-09-21T07:41:12.913Z,100044.47
2022-09-21T07:43:40.414Z,100045.09
2022-09-21T07:46:09.398Z,100044.28
2022-09-21T07:48:36.055Z,100043.69
2022-09-21T07:51:06.260Z,100046.41
2022-09-21T07:53:37.798Z,100051.94
2022-09-21T07:56:09.723Z,100039.50
2022-09-21T07:58:56.084Z,100044.47
2022-09-21T08:01:24.005Z,100042.47
2022-09-21T08:03:56.732Z,100036.28
2022-09-21T08:06:25.350Z,100039.59
2022-09-21T08:08:57.212Z,100041.22
2022-09-21T08:11:26.133Z,100044.91
2022-09-21T08:13:55.114Z,100048.94
2022-09-21T08:16:22.642Z,100050.50
2022-09-21T08:18:50.300Z,100049.25
2022-09-21T08:21:17.620Z,100057.25
2022-09-21T08:23:44.163Z,100057.47
2022-09-21T08:26:18.882Z,100062.97
2022-09-21T08:28:50.087Z,100059.88
2022-09-21T08:31:19.656Z,100059.41
2022-09-21T08:33:47.613Z,100065.22
2022-09-21T08:36:14.431Z,100066.09
2022-09-21T08:38:41.652Z,100071.28
2022-09-21T08:41:52.949Z,100074.63
2022-09-21T08:44:33.391Z,100072.41
2022-09-21T08:47:24.532Z,100071.75
2022-09-21T08:49:58.451Z,100068.28
2022-09-21T08:52:26.439Z,100069.16
2022-09-21T08:55:06.030Z,100077.34
2022-09-21T08:57:34.440Z,100074.16
2022-09-21T09:00:02.181Z,100071.88
2022-09-21T09:02:54.919Z,100072.88
2022-09-21T09:05:48.696Z,100072.34
2022-09-21T09:08:37.118Z,100074.31
2022-09-21T09:11:22.446Z,100066.97
2022-09-21T09:13:52.072Z,100067.72
2022-09-21T09:16:29.640Z,100065.25
2022-09-21T09:19:28.901Z,100059.69
2022-09-21T09:21:56.568Z,100058.94
2022-09-21T09:24:25.874Z,100059.56
2022-09-21T09:26:59.799Z,100067.19
2022-09-21T09:29:38.216Z,100061.63
2022-09-21T09:32:11.107Z,100060.88
2022-09-21T09:34:49.414Z,100060.50
2022-09-21T09:37:17.714Z,100061.19
2022-09-21T09:39:55.225Z,100062.00
2022-09-21T09:42:49.828Z,100056.59
2022-09-21T09:45:40.873Z,100061.47
2022-09-21T09:48:10.557Z,100059.44
2022-09-21T09:50:41.563Z,100056.06
2022-09-21T09:53:26.596Z,100054.03
2022-09-21T09:55:56.314Z,100052.06
2022-09-21T09:58:23.187Z,100045.03
2022-09-21T10:00:54.819Z,100048.47
2022-09-21T10:03:23.950Z,100050.28
2022-09-21T10:05:50.888Z,100043.94
2022-09-21T10:08:36.925Z,100038.00
2022-09-21T10:11:04.097Z,100035.34
2022-09-21T10:13:33.778Z,100037.75
2022-09-21T10:16:26.848Z,100036.50
2022-09-21T10:19:02.379Z,100031.84
2022-09-21T10:21:51.842Z,100024.31
2022-09-21T10:24:33.623Z,100027.81
2022-09-21T10:27:14.420Z,100029.09
2022-09-21T10:29:43.933Z,100019.00
2022-09-21T10:32:14.932Z,100020.63
2022-09-21T10:35:00.214Z,100020.72
2022-09-21T10:37:30.141Z,100009.97
2022-09-21T10:39:59.995Z,100006.19
2022-09-21T10:42:35.473Z,100012.09
2022-09-21T10:45:15.093Z,100005.31
2022-09-21T10:47:48.393Z,100007.03
2022-09-21T10:50:21.116Z,100000.75
2022-09-21T10:52:48.940Z,100001.69
2022-09-21T10:55:19.635Z,99996.16
2022-09-21T10:57:47.916Z,99997.63
2022-09-21T11:00:29.403Z,99990.38
2022-09-21T11:03:00.925Z,99986.81
2022-09-21T11:05:35.148Z,99990.97
2022-09-21T11:08:07.826Z,99984.03
2022-09-21T11:11:02.748Z,99992.28
2022-09-21T11:13:50.630Z,99987.06
2022-09-21T11:16:36.931Z,99985.19
2022-09-21T11:19:32.177Z,99980.97
2022-09-21T11:22:08.320Z,99980.78
2022-09-21T11:24:56.065Z,99975.66
2022-09-21T11:27:45.733Z,99967.56
2022-09-21T11:30:15.974Z,99971.81
2022-09-21T11:33:33.865Z,99968.94
2022-09-21T11:36:14.828Z,99966.91
2022-09-21T11:39:03.551Z,99965.81
2022-09-21T11:41:40.993Z,99969.94
2022-09-21T11:44:25.307Z,99957.47
2022-09-21T11:47:17.239Z,99954.63
2022-09-21T11:50:31.427Z,99949.75
2022-09-21T11:53:30.626Z,99945.91
2022-09-21T11:56:27.095Z,99942.28
2022-09-21T11:59:07.075Z,99944.06
2022-09-21T12:01:36.757Z,99938.94
2022-09-21T12:04:03.654Z,99932.28
2022-09-21T12:06:48.592Z,99932.63
2022-09-21T12:09:36.993Z,99930.97
2022-09-21T12:12:12.945Z,99928.69
2022-09-21T12:15:03.054Z,99918.28
2022-09-21T12:17:33.195Z,99922.34
2022-09-21T12:20:24.380Z,99917.69
2022-09-21T12:22:57.797Z,99914.25
2022-09-21T12:25:31.756Z,99914.38
2022-09-21T12:28:04.485Z,99914.47
2022-09-21T12:30:34.153Z,99908.94
2022-09-21T12:33:04.137Z,99907.53
2022-09-21T12:35:55.962Z,99905.91
2022-09-21T12:38:35.483Z,99910.34
2022-09-21T12:41:21.564Z,99902.44
2022-09-21T12:43:55.505Z,99901.69
2022-09-21T12:46:25.958Z,99899.84
2022-09-21T12:48:53.033Z,99899.59
2022-09-21T12:51:36.265Z,99894.38
2022-09-21T12:54:17.045Z,99890.09
2022-09-21T12:56:59.732Z,99891.00
2022-09-21T12:59:37.596Z,99886.69
2022-09-21T13:02:19.936Z,99893.13
2022-09-21T13:05:21.093Z,99889.41
2022-09-21T13:08:12.328Z,99881.41
2022-09-21T13:10:43.840Z,99879.16
2022-09-21T13:13:38.645Z,99870.72
2022-09-21T13:16:24.423Z,99868.88
2022-09-21T13:19:04.881Z,99865.03
2022-09-21T13:21:33.681Z,99861.66
2022-09-21T13:24:02.894Z,99865.16
2022-09-21T13:26:37.327Z,99853.25
2022-09-21T13:29:18.983Z,99863.50
2022-09-21T13:32:04.580Z,99850.84
2022-09-21T13:34:39.504Z,99856.06
2022-09-21T13:37:13.925Z,99858.75
2022-09-21T13:40:02.332Z,99860.97
2022-09-21T13:42:35.142Z,99856.94
2022-09-21T13:45:06.692Z,99860.28
2022-09-21T13:47:35.846Z,99851.00
2022-09-21T13:50:12.622Z,99848.50
2022-09-21T13:52:52.988Z,99838.38
2022-09-21T13:55:28.585Z,99844.78
2022-09-21T13:57:57.848Z,99839.34
2022-09-21T14:00:42.942Z,99823.97
2022-09-21T14:03:27.835Z,99828.53
2022-09-21T14:06:07.746Z,99829.81
2022-09-21T14:08:41.897Z,99828.81
2022-09-21T14:11:17.774Z,99825.94
2022-09-21T14:14:25.763Z,99822.25
2022-09-21T14:16:52.357Z,99817.84
2022-09-21T14:19:18.967Z,99818.47
2022-09-21T14:22:04.102Z,99817.22
2022-09-21T14:24:51.307Z,99815.38
2022-09-21T14:27:26.068Z,99817.53
2022-09-21T14:30:06.498Z,99813.03
2022-09-21T14:32:44.038Z,99813.69
2022-09-21T14:35:18.572Z,99817.22
2022-09-21T14:37:52.140Z,99811.16
2022-09-21T14:40:25.825Z,99811.84
2022-09-21T14:42:57.360Z,99814.69
2022-09-21T14:45:45.733Z,99808.91
2022-09-21T14:48:51.137Z,99800.34
2022-09-21T14:51:22.845Z,99811.03
2022-09-21T14:54:14.870Z,99807.84
2022-09-21T14:57:15.270Z,99802.41
2022-09-21T14:59:50.656Z,99803.22
2022-09-21T15:02:23.593Z,99811.91
2022-09-21T15:05:08.325Z,99806.53
2022-09-21T15:07:57.868Z,99807.09
2022-09-21T15:10:44.608Z,99806.19
2022-09-21T15:13:25.120Z,99797.84
2022-09-21T15:16:18.015Z,99796.81
2022-09-21T15:18:50.617Z,99792.41
2022-09-21T15:21:24.346Z,99804.47
2022-09-21T15:23:52.429Z,99807.72
2022-09-21T15:26:40.904Z,99800.56
2022-09-21T15:29:18.405Z,99800.19
2022-09-21T15:31:45.640Z,99803.78
2022-09-21T15:34:15.312Z,99799.06
2022-09-21T15:36:44.026Z,99799.25
2022-09-21T15:39:31.198Z,99804.31
2022-09-21T15:42:09.985Z,99806.66
2022-09-21T15:44:38.126Z,99812.81
2022-09-21T15:47:11.307Z,99808.22
2022-09-21T15:49:43.241Z,99802.69
2022-09-21T15:52:32.001Z,99817.59
2022-09-21T15:55:02.900Z,99805.94
2022-09-21T15:57:38.395Z,99815.44
2022-09-21T16:00:31.776Z,99815.53
2022-09-21T16:03:06.474Z,99807.72
2022-09-21T16:05:45.612Z,99816.22
2022-09-21T16:08:41.733Z,99803.72
2022-09-21T16:11:29.869Z,99806.16
2022-09-21T16:14:29.917Z,99802.81
2022-09-21T16:17:26.039Z,99800.03
2022-09-21T16:19:53.961Z,99806.91
2022-09-21T16:22:29.963Z,99806.81
2022-09-21T16:25:01.124Z,99810.13
2022-09-21T16:27:30.069Z,99805.63
2022-09-21T16:29:58.614Z,99808.56
2022-09-21T16:32:34.739Z,99813.34
2022-09-21T16:35:31.429Z,99809.50
2022-09-21T16:37:58.741Z,99818.22
2022-09-21T16:40:29.122Z,99811.72
2022-09-21T16:42:56.864Z,99813.28
2022-09-21T16:45:29.734Z,99814.91
2022-09-21T16:47:57.672Z,99812.91
2022-09-21T16:50:24.603Z,99810.22
2022-09-21T16:52:52.793Z,99814.41
2022-09-21T16:55:20.142Z,99815.59
2022-09-21T16:57:48.241Z,99819.94
2022-09-21T17:00:22.237Z,99815.13
2022-09-21T17:02:49.599Z,99809.59
2022-09-21T17:05:19.463Z,99816.72
2022-09-21T17:07:53.546Z,99817.50
2022-09-21T17:10:21.604Z,99818.00
2022-09-21T17:12:48.351Z,99820.47
2022-09-21T17:15:15.189Z,99819.25
2022-09-21T17:17:41.753Z,99814.69
2022-09-21T17:20:20.483Z,99814.59
2022-09-21T17:22:47.129Z,99820.84
2022-09-21T17:25:13.814Z,99815.41
2022-09-21T17:27:42.342Z,99815.69
2022-09-21T17:30:13.797Z,99815.56
2022-09-21T17:32:42.602Z,99820.81
2022-09-21T17:35:33.185Z,99823.72
2022-09-21T17:38:00.330Z,99820.25
2022-09-21T17:40:27.508Z,99820.00
2022-09-21T17:43:06.492Z,99822.56
2022-09-21T17:45:42.470Z,99825.69
2022-09-21T17:48:17.714Z,99824.72
2022-09-21T17:50:44.564Z,99822.91
2022-09-21T17:53:29.996Z,99828.44
2022-09-21T17:56:15.105Z,99830.25
2022-09-21T17:58:51.663Z,99834.56
2022-09-21T18:01:33.930Z,99844.34
2022-09-21T18:04:01.018Z,99841.72
2022-09-21T18:06:28.514Z,99840.50
2022-09-21T18:08:55.942Z,99853.59
2022-09-21T18:11:44.227Z,99846.53
2022-09-21T18:14:38.737Z,99849.16
2022-09-21T18:17:32.399Z,99860.88
2022-09-21T18:20:29.885Z,99862.00
2022-09-21T18:23:09.890Z,99865.19
2022-09-21T18:25:47.825Z,99867.53
2022-09-21T18:28:58.111Z,99865.03
2022-09-21T18:31:46.435Z,99876.19
2022-09-21T18:34:43.542Z,99881.41
2022-09-21T18:37:22.590Z,99877.56
2022-09-21T18:40:04.407Z,99880.88
2022-09-21T18:42:55.854Z,99887.56
2022-09-21T18:45:27.730Z,99884.53
2022-09-21T18:48:33.384Z,99882.50
2022-09-21T18:51:17.305Z,99885.56
2022-09-21T18:53:47.823Z,99883.34
2022-09-21T18:56:15.211Z,99896.28
2022-09-21T18:58:43.288Z,99889.78
2022-09-21T19:01:14.472Z,99887.53
2022-09-21T19:03:43.892Z,99901.81
2022-09-21T19:06:10.741Z,99892.47
2022-09-21T19:08:37.600Z,99897.31
2022-09-21T19:11:14.476Z,99894.34
2022-09-21T19:14:08.362Z,99896.66
2022-09-21T19:16:47.934Z,99897.03
2022-09-21T19:19:28.465Z,99894.03
2022-09-21T19:22:04.376Z,99894.72
2022-09-21T19:24:50.152Z,99895.97
2022-09-21T19:27:23.120Z,99898.94
2022-09-21T19:30:06.313Z,99891.56
2022-09-21T19:32:43.709Z,99892.72
2022-09-21T19:35:22.835Z,99900.19
2022-09-21T19:37:52.102Z,99896.00
2022-09-21T19:40:21.524Z,99897.25
2022-09-21T19:43:04.917Z,99899.72
2022-09-21T19:45:52.660Z,99899.44
2022-09-21T19:48:26.589Z,99903.88
2022-09-21T19:50:55.585Z,99906.78
2022-09-21T19:53:41.538Z,99902.47
2022-09-21T19:56:32.599Z,99899.44
2022-09-21T19:59:17.950Z,99899.72
2022-09-21T20:02:04.130Z,99902.72
2022-09-21T20:05:01.417Z,99915.44
2022-09-21T20:07:53.162Z,99910.22
2022-09-21T20:10:40.916Z,99919.47
2022-09-21T20:13:22.059Z,99920.69
2022-09-21T20:16:03.933Z,99910.84
2022-09-21T20:18:40.726Z,99906.28
2022-09-21T20:21:16.142Z,99910.28
2022-09-21T20:23:43.132Z,99903.38
2022-09-21T20:26:24.821Z,99913.34
2022-09-21T20:28:52.784Z,99912.66
2022-09-21T20:31:24.734Z,99915.50
2022-09-21T20:33:51.426Z,99904.25
2022-09-21T20:36:18.062Z,99912.28
2022-09-21T20:38:44.825Z,99908.09
2022-09-21T20:41:12.728Z,99899.53
2022-09-21T20:43:39.945Z,99902.44
2022-09-21T20:46:06.954Z,99900.88
2022-09-21T20:48:33.578Z,99906.34
2022-09-21T20:51:01.639Z,99900.56
2022-09-21T20:53:28.239Z,99903.50
2022-09-21T20:55:57.115Z,99904.41
2022-09-21T20:58:24.763Z,99902.13
2022-09-21T21:00:57.907Z,99904.25
2022-09-21T21:03:25.303Z,99903.50
2022-09-21T21:05:51.838Z,99900.19
2022-09-21T21:08:18.818Z,99906.47
2022-09-21T21:10:48.906Z,99907.47
2022-09-21T21:13:15.507Z,99913.09
2022-09-21T21:15:42.121Z,99910.66
2022-09-21T21:18:12.422Z,99908.34
2022-09-21T21:20:39.681Z,99910.28
2022-09-21T21:23:08.287Z,99911.31
2022-09-21T21:25:35.272Z,99918.53
2022-09-21T21:28:02.517Z,99920.50
2022-09-21T21:30:29.127Z,99915.38
2022-09-21T21:32:56.216Z,99915.56
2022-09-21T21:35:22.855Z,99911.41
2022-09-21T21:37:49.900Z,99915.03
2022-09-21T21:40:16.865Z,99916.03
2022-09-21T21:42:43.509Z,99921.50
2022-09-21T21:45:10.584Z,99915.44
2022-09-21T21:47:40.302Z,99910.44
2022-09-21T21:50:08.535Z,99905.41
2022-09-21T21:52:35.124Z,99906.50
2022-09-21T21:55:02.376Z,99906.81
2022-09-21T21:57:29.123Z,99903.44
2022-09-21T21:59:55.698Z,99906.22
2022-09-21T22:02:22.433Z,99908.84
2022-09-21T22:04:49.134Z,99907.25
2022-09-21T22:07:15.767Z,99904.84
2022-09-21T22:09:42.371Z,99913.84
2022-09-21T22:12:10.234Z,99904.41
2022-09-21T22:14:36.821Z,99911.53
2022-09-21T22:17:03.761Z,99918.66
2022-09-21T22:19:30.339Z,99916.19
2022-09-21T22:21:57.756Z,99913.69
2022-09-21T22:24:24.380Z,99913.88
2022-09-21T22:26:51.126Z,99915.88
2022-09-21T22:29:17.953Z,99912.63
2022-09-21T22:31:47.328Z,99908.53
2022-09-21T22:34:15.003Z,99913.97
2022-09-21T22:36:43.843Z,99914.91
2022-09-21T22:39:11.416Z,99914.19
2022-09-21T22:41:39.870Z,99909.84
2022-09-21T22:44:06.908Z,99915.41
2022-09-21T22:46:34.083Z,99918.19
2022-09-21T22:49:01.079Z,99907.72
2022-09-21T22:51:28.555Z,99915.63
2022-09-21T22:53:55.472Z,99918.41
2022-09-21T22:56:24.995Z,99917.69
2022-09-21T22:58:52.959Z,99913.53
2022-09-21T23:01:26.883Z,99922.66
2022-09-21T23:03:59.252Z,99920.88
2022-09-21T23:06:29.637Z,99921.88
2022-09-21T23:08:57.787Z,99922.88
2022-09-21T23:11:28.074Z,99916.78
2022-09-21T23:13:56.161Z,99922.03
2022-09-21T23:16:24.425Z,99917.00
2022-09-21T23:18:51.754Z,99915.38
2022-09-21T23:21:22.075Z,99915.53
2022-09-21T23:23:49.094Z,99907.78
2022-09-21T23:26:18.999Z,99913.97
2022-09-21T23:28:51.038Z,99917.69
2022-09-21T23:31:18.561Z,99911.69
2022-09-21T23:33:56.604Z,99909.28
2022-09-21T23:36:27.215Z,99909.47
2022-09-21T23:38:54.300Z,99910.38
2022-09-21T23:41:26.575Z,99908.81
2022-09-21T23:43:53.844Z,99908.03
2022-09-21T23:46:23.358Z,99907.25
2022-09-21T23:48:50.262Z,99913.72
2022-09-21T23:51:17.576Z,99906.91
2022-09-21T23:53:45.189Z,99908.75
2022-09-21T23:56:17.466Z,99911.44
2022-09-21T23:58:44.346Z,99907.22
